sensor_id;sensor_type;location;lat;lon;timestamp;P1;durP1;ratioP1;P2;durP2;ratioP2
67965;SDS011;54749;47.850;9.002;2024-03-23T00:59:14;7.67;;;2.60;;
67965;SDS011;54749;47.850;9.002;2024-03-23T01:01:40;7.18;;;3.10;;
67965;SDS011;54749;47.850;9.002;2024-03-23T01:04:06;7.05;;;2.92;;
67965;SDS011;54749;47.850;9.002;2024-03-23T02:48:33;10.85;;;4.43;;
67965;SDS011;54749;47.850;9.002;2024-03-23T02:50:59;10.10;;;3.90;;
67965;SDS011;54749;47.850;9.002;2024-03-23T02:53:25;9.03;;;4.13;;
67965;SDS011;54749;47.850;9.002;2024-03-23T03:02:23;9.45;;;3.22;;
67965;SDS011;54749;47.850;9.002;2024-03-23T03:08:41;7.97;;;3.47;;
67965;SDS011;54749;47.850;9.002;2024-03-23T03:22:52;7.53;;;2.83;;
67965;SDS011;54749;47.850;9.002;2024-03-23T03:32:54;9.43;;;4.32;;
67965;SDS011;54749;47.850;9.002;2024-03-23T03:35:20;8.57;;;3.78;;
67965;SDS011;54749;47.850;9.002;2024-03-23T03:37:47;7.03;;;3.30;;
67965;SDS011;54749;47.850;9.002;2024-03-23T03:40:13;6.05;;;2.90;;
67965;SDS011;54749;47.850;9.002;2024-03-23T03:42:43;7.72;;;3.28;;
67965;SDS011;54749;47.850;9.002;2024-03-23T03:45:13;7.75;;;3.35;;
67965;SDS011;54749;47.850;9.002;2024-03-23T03:47:40;7.93;;;3.75;;
67965;SDS011;54749;47.850;9.002;2024-03-23T03:50:06;7.77;;;3.00;;
67965;SDS011;54749;47.850;9.002;2024-03-23T03:52:33;10.05;;;3.92;;
67965;SDS011;54749;47.850;9.002;2024-03-23T03:55:03;9.95;;;4.35;;
67965;SDS011;54749;47.850;9.002;2024-03-23T03:57:38;8.40;;;3.70;;
67965;SDS011;54749;47.850;9.002;2024-03-23T04:00:04;10.13;;;4.10;;
67965;SDS011;54749;47.850;9.002;2024-03-23T04:02:31;8.55;;;3.97;;
67965;SDS011;54749;47.850;9.002;2024-03-23T04:04:57;6.70;;;2.90;;
67965;SDS011;54749;47.850;9.002;2024-03-23T04:07:23;7.40;;;3.30;;
67965;SDS011;54749;47.850;9.002;2024-03-23T04:09:49;6.50;;;2.87;;
67965;SDS011;54749;47.850;9.002;2024-03-23T04:12:15;8.73;;;3.22;;
67965;SDS011;54749;47.850;9.002;2024-03-23T04:14:41;6.57;;;2.83;;
67965;SDS011;54749;47.850;9.002;2024-03-23T04:17:07;6.60;;;2.92;;
67965;SDS011;54749;47.850;9.002;2024-03-23T04:19:34;7.32;;;2.90;;
67965;SDS011;54749;47.850;9.002;2024-03-23T04:22:02;8.70;;;3.33;;
67965;SDS011;54749;47.850;9.002;2024-03-23T04:24:29;7.35;;;2.97;;
67965;SDS011;54749;47.850;9.002;2024-03-23T04:26:57;6.88;;;3.00;;
67965;SDS011;54749;47.850;9.002;2024-03-23T04:29:24;7.35;;;3.00;;
67965;SDS011;54749;47.850;9.002;2024-03-23T04:31:50;8.90;;;3.53;;
67965;SDS011;54749;47.850;9.002;2024-03-23T04:34:16;8.10;;;3.03;;
67965;SDS011;54749;47.850;9.002;2024-03-23T04:36:44;7.35;;;3.70;;
67965;SDS011;54749;47.850;9.002;2024-03-23T04:39:11;8.18;;;3.85;;
67965;SDS011;54749;47.850;9.002;2024-03-23T04:41:37;11.55;;;5.38;;
67965;SDS011;54749;47.850;9.002;2024-03-23T04:44:04;11.17;;;5.00;;
67965;SDS011;54749;47.850;9.002;2024-03-23T04:46:34;12.25;;;5.35;;
67965;SDS011;54749;47.850;9.002;2024-03-23T04:49:00;13.18;;;5.93;;
67965;SDS011;54749;47.850;9.002;2024-03-23T04:51:26;18.05;;;7.32;;
67965;SDS011;54749;47.850;9.002;2024-03-23T04:53:53;27.03;;;10.87;;
67965;SDS011;54749;47.850;9.002;2024-03-23T04:56:23;33.25;;;12.60;;
67965;SDS011;54749;47.850;9.002;2024-03-23T04:58:49;18.92;;;7.07;;
67965;SDS011;54749;47.850;9.002;2024-03-23T05:01:15;14.38;;;5.80;;
67965;SDS011;54749;47.850;9.002;2024-03-23T05:03:42;10.77;;;4.80;;
67965;SDS011;54749;47.850;9.002;2024-03-23T05:06:08;8.90;;;4.70;;
67965;SDS011;54749;47.850;9.002;2024-03-23T05:08:34;9.15;;;4.50;;
67965;SDS011;54749;47.850;9.002;2024-03-23T05:11:00;10.82;;;4.63;;
67965;SDS011;54749;47.850;9.002;2024-03-23T05:13:26;12.63;;;5.63;;
67965;SDS011;54749;47.850;9.002;2024-03-23T05:32:01;15.50;;;5.20;;
67965;SDS011;54749;47.850;9.002;2024-03-23T05:48:31;13.93;;;5.53;;
67965;SDS011;54749;47.850;9.002;2024-03-23T05:50:57;17.85;;;6.15;;
67965;SDS011;54749;47.850;9.002;2024-03-23T05:53:23;18.13;;;7.70;;
67965;SDS011;54749;47.850;9.002;2024-03-23T06:02:05;20.23;;;8.80;;
67965;SDS011;54749;47.850;9.002;2024-03-23T06:10:46;10.65;;;4.93;;
67965;SDS011;54749;47.850;9.002;2024-03-23T06:22:28;7.05;;;3.28;;
67965;SDS011;54749;47.850;9.002;2024-03-23T06:36:38;9.85;;;4.72;;
67965;SDS011;54749;47.850;9.002;2024-03-23T06:39:59;11.65;;;5.40;;
67965;SDS011;54749;47.850;9.002;2024-03-23T06:42:57;9.55;;;4.07;;
67965;SDS011;54749;47.850;9.002;2024-03-23T06:46:32;9.07;;;4.55;;
67965;SDS011;54749;47.850;9.002;2024-03-23T06:49:01;12.67;;;4.90;;
67965;SDS011;54749;47.850;9.002;2024-03-23T06:51:40;11.00;;;5.40;;
67965;SDS011;54749;47.850;9.002;2024-03-23T06:54:08;8.00;;;4.00;;
67965;SDS011;54749;47.850;9.002;2024-03-23T06:56:43;11.50;;;5.28;;
67965;SDS011;54749;47.850;9.002;2024-03-23T06:59:12;13.60;;;5.32;;
67965;SDS011;54749;47.850;9.002;2024-03-23T07:01:44;12.33;;;5.37;;
67965;SDS011;54749;47.850;9.002;2024-03-23T07:04:09;7.90;;;3.65;;
67965;SDS011;54749;47.850;9.002;2024-03-23T07:06:49;10.75;;;4.22;;
67965;SDS011;54749;47.850;9.002;2024-03-23T07:09:23;7.38;;;3.72;;
67965;SDS011;54749;47.850;9.002;2024-03-23T07:12:03;7.95;;;3.75;;
67965;SDS011;54749;47.850;9.002;2024-03-23T07:14:30;9.00;;;4.10;;
67965;SDS011;54749;47.850;9.002;2024-03-23T07:16:56;8.07;;;3.30;;
67965;SDS011;54749;47.850;9.002;2024-03-23T07:19:23;6.47;;;3.22;;
67965;SDS011;54749;47.850;9.002;2024-03-23T07:21:51;7.22;;;2.67;;
67965;SDS011;54749;47.850;9.002;2024-03-23T07:24:16;5.93;;;2.80;;
67965;SDS011;54749;47.850;9.002;2024-03-23T07:26:43;7.53;;;3.70;;
67965;SDS011;54749;47.850;9.002;2024-03-23T07:29:09;7.38;;;3.20;;
67965;SDS011;54749;47.850;9.002;2024-03-23T07:31:35;7.57;;;3.15;;
67965;SDS011;54749;47.850;9.002;2024-03-23T07:34:02;6.18;;;2.63;;
67965;SDS011;54749;47.850;9.002;2024-03-23T07:36:29;8.63;;;3.30;;
67965;SDS011;54749;47.850;9.002;2024-03-23T07:38:55;7.77;;;3.80;;
67965;SDS011;54749;47.850;9.002;2024-03-23T07:41:21;7.03;;;3.50;;
67965;SDS011;54749;47.850;9.002;2024-03-23T07:43:48;8.63;;;4.28;;
67965;SDS011;54749;47.850;9.002;2024-03-23T07:46:15;6.80;;;3.10;;
67965;SDS011;54749;47.850;9.002;2024-03-23T07:48:41;7.43;;;3.38;;
67965;SDS011;54749;47.850;9.002;2024-03-23T07:51:09;6.65;;;2.92;;
67965;SDS011;54749;47.850;9.002;2024-03-23T07:53:36;7.90;;;2.90;;
67965;SDS011;54749;47.850;9.002;2024-03-23T07:58:29;4.87;;;2.00;;
67965;SDS011;54749;47.850;9.002;2024-03-23T08:00:56;4.68;;;1.90;;
67965;SDS011;54749;47.850;9.002;2024-03-23T08:03:29;4.63;;;2.00;;
67965;SDS011;54749;47.850;9.002;2024-03-23T08:05:55;4.60;;;1.60;;
67965;SDS011;54749;47.850;9.002;2024-03-23T08:08:21;3.40;;;1.20;;
67965;SDS011;54749;47.850;9.002;2024-03-23T08:10:51;3.00;;;0.90;;
67965;SDS011;54749;47.850;9.002;2024-03-23T08:13:17;2.88;;;0.90;;
67965;SDS011;54749;47.850;9.002;2024-03-23T08:15:46;2.60;;;0.80;;
67965;SDS011;54749;47.850;9.002;2024-03-23T08:18:12;2.70;;;0.70;;
67965;SDS011;54749;47.850;9.002;2024-03-23T08:20:39;2.50;;;0.70;;
67965;SDS011;54749;47.850;9.002;2024-03-23T08:23:06;2.35;;;0.70;;
67965;SDS011;54749;47.850;9.002;2024-03-23T08:25:32;2.40;;;0.68;;
67965;SDS011;54749;47.850;9.002;2024-03-23T08:27:58;3.03;;;0.77;;
67965;SDS011;54749;47.850;9.002;2024-03-23T08:30:25;2.90;;;0.60;;
67965;SDS011;54749;47.850;9.002;2024-03-23T08:32:51;2.20;;;0.50;;
67965;SDS011;54749;47.850;9.002;2024-03-23T08:35:17;2.67;;;0.60;;
67965;SDS011;54749;47.850;9.002;2024-03-23T08:37:43;2.25;;;0.60;;
67965;SDS011;54749;47.850;9.002;2024-03-23T08:40:09;2.33;;;0.57;;
67965;SDS011;54749;47.850;9.002;2024-03-23T08:42:36;3.53;;;0.50;;
67965;SDS011;54749;47.850;9.002;2024-03-23T08:45:02;2.20;;;0.60;;
67965;SDS011;54749;47.850;9.002;2024-03-23T08:47:28;2.55;;;0.60;;
67965;SDS011;54749;47.850;9.002;2024-03-23T08:49:54;2.20;;;0.60;;
67965;SDS011;54749;47.850;9.002;2024-03-23T08:52:20;1.83;;;0.40;;
67965;SDS011;54749;47.850;9.002;2024-03-23T08:54:48;1.83;;;0.50;;
67965;SDS011;54749;47.850;9.002;2024-03-23T08:57:14;2.10;;;0.60;;
67965;SDS011;54749;47.850;9.002;2024-03-23T08:59:41;2.30;;;0.70;;
67965;SDS011;54749;47.850;9.002;2024-03-23T09:02:07;2.30;;;0.50;;
67965;SDS011;54749;47.850;9.002;2024-03-23T09:04:33;2.13;;;0.50;;
67965;SDS011;54749;47.850;9.002;2024-03-23T09:06:59;2.20;;;0.60;;
67965;SDS011;54749;47.850;9.002;2024-03-23T09:09:26;2.30;;;0.60;;
67965;SDS011;54749;47.850;9.002;2024-03-23T09:11:51;2.73;;;0.80;;
67965;SDS011;54749;47.850;9.002;2024-03-23T09:14:18;2.97;;;0.68;;
67965;SDS011;54749;47.850;9.002;2024-03-23T09:16:44;2.30;;;0.70;;
67965;SDS011;54749;47.850;9.002;2024-03-23T09:19:10;2.83;;;0.80;;
67965;SDS011;54749;47.850;9.002;2024-03-23T09:21:36;2.30;;;0.67;;
67965;SDS011;54749;47.850;9.002;2024-03-23T09:24:02;4.25;;;0.80;;
67965;SDS011;54749;47.850;9.002;2024-03-23T09:26:28;3.10;;;0.90;;
67965;SDS011;54749;47.850;9.002;2024-03-23T09:28:55;4.28;;;1.20;;
67965;SDS011;54749;47.850;9.002;2024-03-23T09:31:21;6.00;;;1.30;;
67965;SDS011;54749;47.850;9.002;2024-03-23T09:33:48;6.97;;;1.30;;
67965;SDS011;54749;47.850;9.002;2024-03-23T09:36:14;4.22;;;1.27;;
67965;SDS011;54749;47.850;9.002;2024-03-23T09:38:40;5.75;;;1.42;;
67965;SDS011;54749;47.850;9.002;2024-03-23T09:43:34;8.18;;;1.70;;
67965;SDS011;54749;47.850;9.002;2024-03-23T09:46:01;6.20;;;1.57;;
67965;SDS011;54749;47.850;9.002;2024-03-23T09:48:28;6.03;;;1.75;;
67965;SDS011;54749;47.850;9.002;2024-03-23T09:50:55;5.30;;;1.63;;
67965;SDS011;54749;47.850;9.002;2024-03-23T09:53:21;7.30;;;1.73;;
67965;SDS011;54749;47.850;9.002;2024-03-23T09:55:48;7.18;;;1.77;;
67965;SDS011;54749;47.850;9.002;2024-03-23T09:58:16;6.47;;;1.53;;
67965;SDS011;54749;47.850;9.002;2024-03-23T10:00:43;5.75;;;1.80;;
67965;SDS011;54749;47.850;9.002;2024-03-23T10:03:09;7.43;;;1.70;;
67965;SDS011;54749;47.850;9.002;2024-03-23T10:05:37;6.53;;;1.70;;
67965;SDS011;54749;47.850;9.002;2024-03-23T10:10:39;6.90;;;1.40;;
67965;SDS011;54749;47.850;9.002;2024-03-23T10:13:05;4.63;;;1.55;;
67965;SDS011;54749;47.850;9.002;2024-03-23T10:15:33;6.47;;;1.65;;
67965;SDS011;54749;47.850;9.002;2024-03-23T10:18:19;5.28;;;1.40;;
67965;SDS011;54749;47.850;9.002;2024-03-23T10:20:47;6.67;;;1.67;;
67965;SDS011;54749;47.850;9.002;2024-03-23T10:23:17;5.53;;;1.48;;
67965;SDS011;54749;47.850;9.002;2024-03-23T10:25:43;7.55;;;2.03;;
67965;SDS011;54749;47.850;9.002;2024-03-23T10:28:10;7.93;;;1.92;;
67965;SDS011;54749;47.850;9.002;2024-03-23T10:30:37;7.15;;;1.83;;
67965;SDS011;54749;47.850;9.002;2024-03-23T10:33:09;6.37;;;1.80;;
67965;SDS011;54749;47.850;9.002;2024-03-23T10:35:36;9.20;;;1.70;;
67965;SDS011;54749;47.850;9.002;2024-03-23T10:38:07;5.97;;;1.77;;
67965;SDS011;54749;47.850;9.002;2024-03-23T10:40:34;7.57;;;1.77;;
67965;SDS011;54749;47.850;9.002;2024-03-23T10:43:01;5.93;;;1.75;;
67965;SDS011;54749;47.850;9.002;2024-03-23T10:45:28;5.03;;;1.90;;
67965;SDS011;54749;47.850;9.002;2024-03-23T10:50:21;6.10;;;1.73;;
67965;SDS011;54749;47.850;9.002;2024-03-23T10:52:49;5.53;;;1.90;;
67965;SDS011;54749;47.850;9.002;2024-03-23T10:55:18;5.07;;;1.55;;
67965;SDS011;54749;47.850;9.002;2024-03-23T10:57:55;5.78;;;1.45;;
67965;SDS011;54749;47.850;9.002;2024-03-23T11:00:25;5.23;;;1.40;;
67965;SDS011;54749;47.850;9.002;2024-03-23T11:02:52;4.45;;;1.20;;
67965;SDS011;54749;47.850;9.002;2024-03-23T11:07:54;4.22;;;1.30;;
67965;SDS011;54749;47.850;9.002;2024-03-23T11:10:29;6.50;;;1.40;;
67965;SDS011;54749;47.850;9.002;2024-03-23T11:12:57;5.55;;;1.55;;
67965;SDS011;54749;47.850;9.002;2024-03-23T11:15:23;3.92;;;1.40;;
67965;SDS011;54749;47.850;9.002;2024-03-23T11:18:02;6.15;;;1.42;;
67965;SDS011;54749;47.850;9.002;2024-03-23T11:20:34;7.38;;;1.50;;
67965;SDS011;54749;47.850;9.002;2024-03-23T11:23:00;4.97;;;1.40;;
67965;SDS011;54749;47.850;9.002;2024-03-23T11:25:27;5.18;;;1.27;;
67965;SDS011;54749;47.850;9.002;2024-03-23T11:27:54;6.05;;;1.30;;
67965;SDS011;54749;47.850;9.002;2024-03-23T11:32:50;5.43;;;1.35;;
67965;SDS011;54749;47.850;9.002;2024-03-23T11:35:31;6.47;;;1.40;;
67965;SDS011;54749;47.850;9.002;2024-03-23T11:40:45;9.23;;;1.58;;
67965;SDS011;54749;47.850;9.002;2024-03-23T11:43:13;6.18;;;1.63;;
67965;SDS011;54749;47.850;9.002;2024-03-23T11:45:47;9.43;;;2.05;;
67965;SDS011;54749;47.850;9.002;2024-03-23T11:48:21;8.27;;;1.53;;
67965;SDS011;54749;47.850;9.002;2024-03-23T11:50:49;5.25;;;1.30;;
67965;SDS011;54749;47.850;9.002;2024-03-23T11:53:17;7.63;;;1.50;;
67965;SDS011;54749;47.850;9.002;2024-03-23T11:55:58;7.40;;;1.90;;
67965;SDS011;54749;47.850;9.002;2024-03-23T11:58:26;7.50;;;1.30;;
67965;SDS011;54749;47.850;9.002;2024-03-23T12:00:55;2.80;;;0.83;;
67965;SDS011;54749;47.850;9.002;2024-03-23T12:03:23;5.57;;;1.30;;
67965;SDS011;54749;47.850;9.002;2024-03-23T12:05:56;6.07;;;1.25;;
67965;SDS011;54749;47.850;9.002;2024-03-23T12:08:31;6.50;;;1.27;;
67965;SDS011;54749;47.850;9.002;2024-03-23T12:11:05;5.38;;;1.30;;
67965;SDS011;54749;47.850;9.002;2024-03-23T12:13:37;4.83;;;1.17;;
67965;SDS011;54749;47.850;9.002;2024-03-23T12:16:10;5.13;;;1.10;;
67965;SDS011;54749;47.850;9.002;2024-03-23T12:18:44;6.18;;;1.40;;
67965;SDS011;54749;47.850;9.002;2024-03-23T12:21:11;4.47;;;1.15;;
67965;SDS011;54749;47.850;9.002;2024-03-23T12:23:40;3.42;;;1.00;;
67965;SDS011;54749;47.850;9.002;2024-03-23T12:26:07;5.10;;;1.10;;
67965;SDS011;54749;47.850;9.002;2024-03-23T12:28:33;4.65;;;1.00;;
67965;SDS011;54749;47.850;9.002;2024-03-23T12:30:59;4.07;;;1.08;;
67965;SDS011;54749;47.850;9.002;2024-03-23T12:33:25;3.85;;;1.10;;
67965;SDS011;54749;47.850;9.002;2024-03-23T12:35:52;2.97;;;0.80;;
67965;SDS011;54749;47.850;9.002;2024-03-23T12:38:19;4.35;;;1.10;;
67965;SDS011;54749;47.850;9.002;2024-03-23T12:40:49;4.15;;;0.80;;
67965;SDS011;54749;47.850;9.002;2024-03-23T12:43:16;2.55;;;0.70;;
67965;SDS011;54749;47.850;9.002;2024-03-23T12:45:46;3.97;;;1.00;;
67965;SDS011;54749;47.850;9.002;2024-03-23T12:48:12;3.45;;;1.00;;
67965;SDS011;54749;47.850;9.002;2024-03-23T12:50:38;4.28;;;1.27;;
67965;SDS011;54749;47.850;9.002;2024-03-23T12:53:04;4.97;;;1.15;;
67965;SDS011;54749;47.850;9.002;2024-03-23T12:55:30;5.83;;;1.37;;
67965;SDS011;54749;47.850;9.002;2024-03-23T12:57:56;6.20;;;1.38;;
67965;SDS011;54749;47.850;9.002;2024-03-23T13:00:22;6.55;;;1.60;;
67965;SDS011;54749;47.850;9.002;2024-03-23T13:02:48;3.63;;;1.30;;
67965;SDS011;54749;47.850;9.002;2024-03-23T13:05:14;6.23;;;1.50;;
67965;SDS011;54749;47.850;9.002;2024-03-23T13:07:41;5.05;;;1.27;;
67965;SDS011;54749;47.850;9.002;2024-03-23T13:10:06;5.63;;;1.60;;
67965;SDS011;54749;47.850;9.002;2024-03-23T13:12:33;5.70;;;1.50;;
67965;SDS011;54749;47.850;9.002;2024-03-23T13:14:59;4.67;;;1.40;;
67965;SDS011;54749;47.850;9.002;2024-03-23T13:17:26;4.90;;;1.48;;
67965;SDS011;54749;47.850;9.002;2024-03-23T13:19:53;5.40;;;1.40;;
67965;SDS011;54749;47.850;9.002;2024-03-23T13:22:22;4.65;;;1.40;;
67965;SDS011;54749;47.850;9.002;2024-03-23T13:24:48;6.13;;;1.30;;
67965;SDS011;54749;47.850;9.002;2024-03-23T13:27:14;5.55;;;1.50;;
67965;SDS011;54749;47.850;9.002;2024-03-23T13:29:40;4.70;;;1.40;;
67965;SDS011;54749;47.850;9.002;2024-03-23T13:32:06;6.88;;;1.55;;
67965;SDS011;54749;47.850;9.002;2024-03-23T13:34:32;5.80;;;1.40;;
67965;SDS011;54749;47.850;9.002;2024-03-23T13:37:01;4.68;;;1.40;;
67965;SDS011;54749;47.850;9.002;2024-03-23T13:39:27;7.20;;;2.70;;
67965;SDS011;54749;47.850;9.002;2024-03-23T13:41:53;4.80;;;1.73;;
67965;SDS011;54749;47.850;9.002;2024-03-23T13:44:21;4.50;;;1.77;;
67965;SDS011;54749;47.850;9.002;2024-03-23T13:46:48;7.27;;;2.37;;
67965;SDS011;54749;47.850;9.002;2024-03-23T13:49:27;8.88;;;2.40;;
67965;SDS011;54749;47.850;9.002;2024-03-23T13:51:55;6.35;;;1.88;;
67965;SDS011;54749;47.850;9.002;2024-03-23T13:54:23;8.55;;;1.80;;
67965;SDS011;54749;47.850;9.002;2024-03-23T13:56:53;4.80;;;1.65;;
67965;SDS011;54749;47.850;9.002;2024-03-23T13:59:22;10.03;;;1.50;;
67965;SDS011;54749;47.850;9.002;2024-03-23T14:01:51;8.30;;;1.67;;
67965;SDS011;54749;47.850;9.002;2024-03-23T14:04:17;5.53;;;1.48;;
67965;SDS011;54749;47.850;9.002;2024-03-23T14:06:45;5.95;;;1.40;;
67965;SDS011;54749;47.850;9.002;2024-03-23T14:09:11;5.40;;;1.25;;
67965;SDS011;54749;47.850;9.002;2024-03-23T14:11:38;7.80;;;1.60;;
67965;SDS011;54749;47.850;9.002;2024-03-23T14:14:04;5.65;;;1.23;;
67965;SDS011;54749;47.850;9.002;2024-03-23T14:16:30;4.82;;;1.20;;
67965;SDS011;54749;47.850;9.002;2024-03-23T14:18:57;7.45;;;1.08;;
67965;SDS011;54749;47.850;9.002;2024-03-23T14:21:23;4.50;;;1.10;;
67965;SDS011;54749;47.850;9.002;2024-03-23T14:23:49;6.95;;;1.02;;
67965;SDS011;54749;47.850;9.002;2024-03-23T14:26:16;9.57;;;1.23;;
67965;SDS011;54749;47.850;9.002;2024-03-23T14:28:42;4.05;;;1.20;;
67965;SDS011;54749;47.850;9.002;2024-03-23T14:31:08;5.80;;;1.00;;
67965;SDS011;54749;47.850;9.002;2024-03-23T14:33:37;6.13;;;1.05;;
67965;SDS011;54749;47.850;9.002;2024-03-23T14:36:03;6.03;;;1.40;;
67965;SDS011;54749;47.850;9.002;2024-03-23T14:38:30;7.50;;;1.40;;
67965;SDS011;54749;47.850;9.002;2024-03-23T14:40:59;5.05;;;1.30;;
67965;SDS011;54749;47.850;9.002;2024-03-23T14:43:26;5.67;;;1.20;;
67965;SDS011;54749;47.850;9.002;2024-03-23T14:46:05;4.63;;;0.90;;
67965;SDS011;54749;47.850;9.002;2024-03-23T14:48:31;4.18;;;1.45;;
67965;SDS011;54749;47.850;9.002;2024-03-23T14:50:58;7.60;;;1.25;;
67965;SDS011;54749;47.850;9.002;2024-03-23T14:53:30;7.93;;;1.50;;
67965;SDS011;54749;47.850;9.002;2024-03-23T14:55:57;5.07;;;1.10;;
67965;SDS011;54749;47.850;9.002;2024-03-23T14:58:23;6.45;;;1.40;;
67965;SDS011;54749;47.850;9.002;2024-03-23T15:00:50;6.20;;;1.30;;
67965;SDS011;54749;47.850;9.002;2024-03-23T15:03:17;14.10;;;1.60;;
67965;SDS011;54749;47.850;9.002;2024-03-23T15:05:54;3.97;;;1.30;;
67965;SDS011;54749;47.850;9.002;2024-03-23T15:08:21;6.00;;;1.30;;
67965;SDS011;54749;47.850;9.002;2024-03-23T15:10:47;8.07;;;1.30;;
67965;SDS011;54749;47.850;9.002;2024-03-23T15:13:13;6.15;;;1.30;;
67965;SDS011;54749;47.850;9.002;2024-03-23T15:15:41;6.47;;;1.50;;
67965;SDS011;54749;47.850;9.002;2024-03-23T15:18:12;5.87;;;1.30;;
67965;SDS011;54749;47.850;9.002;2024-03-23T15:20:39;7.10;;;1.10;;
67965;SDS011;54749;47.850;9.002;2024-03-23T15:23:05;6.43;;;1.45;;
67965;SDS011;54749;47.850;9.002;2024-03-23T15:25:31;4.10;;;1.23;;
67965;SDS011;54749;47.850;9.002;2024-03-23T15:27:57;5.20;;;1.35;;
67965;SDS011;54749;47.850;9.002;2024-03-23T15:30:26;6.33;;;1.37;;
67965;SDS011;54749;47.850;9.002;2024-03-23T15:32:52;7.38;;;1.20;;
67965;SDS011;54749;47.850;9.002;2024-03-23T15:35:18;6.40;;;1.42;;
67965;SDS011;54749;47.850;9.002;2024-03-23T15:37:46;5.97;;;1.30;;
67965;SDS011;54749;47.850;9.002;2024-03-23T15:40:13;7.82;;;1.30;;
67965;SDS011;54749;47.850;9.002;2024-03-23T15:42:38;6.57;;;1.20;;
67965;SDS011;54749;47.850;9.002;2024-03-23T15:45:08;7.15;;;1.30;;
67965;SDS011;54749;47.850;9.002;2024-03-23T15:47:35;7.35;;;1.23;;
67965;SDS011;54749;47.850;9.002;2024-03-23T15:50:01;3.35;;;1.00;;
67965;SDS011;54749;47.850;9.002;2024-03-23T15:52:28;4.03;;;0.90;;
67965;SDS011;54749;47.850;9.002;2024-03-23T15:54:55;4.30;;;0.90;;
67965;SDS011;54749;47.850;9.002;2024-03-23T15:57:23;4.95;;;1.08;;
67965;SDS011;54749;47.850;9.002;2024-03-23T15:59:50;6.32;;;1.08;;
67965;SDS011;54749;47.850;9.002;2024-03-23T16:02:16;6.20;;;1.25;;
67965;SDS011;54749;47.850;9.002;2024-03-23T16:04:42;5.07;;;1.10;;
67965;SDS011;54749;47.850;9.002;2024-03-23T16:07:10;10.67;;;1.30;;
67965;SDS011;54749;47.850;9.002;2024-03-23T16:09:37;5.05;;;1.02;;
67965;SDS011;54749;47.850;9.002;2024-03-23T16:12:03;5.65;;;1.27;;
67965;SDS011;54749;47.850;9.002;2024-03-23T16:14:29;4.68;;;1.10;;
67965;SDS011;54749;47.850;9.002;2024-03-23T16:16:55;4.57;;;1.10;;
67965;SDS011;54749;47.850;9.002;2024-03-23T16:19:21;6.45;;;1.20;;
67965;SDS011;54749;47.850;9.002;2024-03-23T16:21:48;4.05;;;0.80;;
67965;SDS011;54749;47.850;9.002;2024-03-23T16:24:14;6.97;;;1.60;;
67965;SDS011;54749;47.850;9.002;2024-03-23T16:26:40;5.95;;;1.23;;
67965;SDS011;54749;47.850;9.002;2024-03-23T16:29:06;6.30;;;1.58;;
67965;SDS011;54749;47.850;9.002;2024-03-23T16:31:32;4.10;;;1.10;;
67965;SDS011;54749;47.850;9.002;2024-03-23T16:33:59;4.83;;;0.97;;
67965;SDS011;54749;47.850;9.002;2024-03-23T16:38:51;11.10;;;2.43;;
67965;SDS011;54749;47.850;9.002;2024-03-23T16:41:17;11.50;;;3.78;;
67965;SDS011;54749;47.850;9.002;2024-03-23T16:43:44;10.38;;;3.08;;
67965;SDS011;54749;47.850;9.002;2024-03-23T16:46:11;8.30;;;2.17;;
67965;SDS011;54749;47.850;9.002;2024-03-23T16:48:38;8.47;;;2.27;;
67965;SDS011;54749;47.850;9.002;2024-03-23T16:51:08;5.10;;;1.38;;
67965;SDS011;54749;47.850;9.002;2024-03-23T16:53:36;10.73;;;3.08;;
67965;SDS011;54749;47.850;9.002;2024-03-23T16:56:03;7.60;;;1.85;;
67965;SDS011;54749;47.850;9.002;2024-03-23T16:58:33;7.90;;;1.83;;
67965;SDS011;54749;47.850;9.002;2024-03-23T17:03:30;3.35;;;1.10;;
67965;SDS011;54749;47.850;9.002;2024-03-23T17:05:56;5.90;;;1.10;;
67965;SDS011;54749;47.850;9.002;2024-03-23T17:08:22;4.60;;;1.52;;
67965;SDS011;54749;47.850;9.002;2024-03-23T17:10:48;4.93;;;1.27;;
67965;SDS011;54749;47.850;9.002;2024-03-23T17:13:14;6.53;;;1.70;;
67965;SDS011;54749;47.850;9.002;2024-03-23T17:15:43;5.35;;;1.35;;
67965;SDS011;54749;47.850;9.002;2024-03-23T17:18:09;3.88;;;1.02;;
67965;SDS011;54749;47.850;9.002;2024-03-23T17:20:35;5.60;;;1.00;;
67965;SDS011;54749;47.850;9.002;2024-03-23T17:23:02;6.93;;;1.55;;
67965;SDS011;54749;47.850;9.002;2024-03-23T17:25:28;4.40;;;1.15;;
67965;SDS011;54749;47.850;9.002;2024-03-23T17:27:54;6.07;;;1.92;;
67965;SDS011;54749;47.850;9.002;2024-03-23T17:30:20;10.20;;;3.37;;
67965;SDS011;54749;47.850;9.002;2024-03-23T17:32:46;6.83;;;1.40;;
67965;SDS011;54749;47.850;9.002;2024-03-23T17:35:13;4.68;;;1.30;;
67965;SDS011;54749;47.850;9.002;2024-03-23T17:37:40;5.20;;;1.63;;
67965;SDS011;54749;47.850;9.002;2024-03-23T17:40:08;5.28;;;1.25;;
67965;SDS011;54749;47.850;9.002;2024-03-23T17:42:35;3.38;;;0.73;;
67965;SDS011;54749;47.850;9.002;2024-03-23T17:45:02;2.93;;;1.00;;
67965;SDS011;54749;47.850;9.002;2024-03-23T18:54:06;3.75;;;1.35;;
67965;SDS011;54749;47.850;9.002;2024-03-23T18:56:32;3.83;;;1.48;;
67965;SDS011;54749;47.850;9.002;2024-03-23T18:58:58;5.03;;;1.50;;
67965;SDS011;54749;47.850;9.002;2024-03-23T19:01:24;10.97;;;4.03;;
67965;SDS011;54749;47.850;9.002;2024-03-23T19:03:50;14.95;;;6.20;;
67965;SDS011;54749;47.850;9.002;2024-03-23T19:06:16;6.97;;;3.03;;
67965;SDS011;54749;47.850;9.002;2024-03-23T19:08:42;5.68;;;1.90;;
67965;SDS011;54749;47.850;9.002;2024-03-23T19:11:08;5.97;;;2.10;;
67965;SDS011;54749;47.850;9.002;2024-03-23T19:13:34;8.38;;;2.35;;
67965;SDS011;54749;47.850;9.002;2024-03-23T19:16:02;4.25;;;1.45;;
67965;SDS011;54749;47.850;9.002;2024-03-23T22:04:50;21.35;;;9.20;;
67965;SDS011;54749;47.850;9.002;2024-03-23T22:07:17;9.37;;;3.70;;
67965;SDS011;54749;47.850;9.002;2024-03-23T22:09:43;7.75;;;2.80;;
67965;SDS011;54749;47.850;9.002;2024-03-23T22:12:09;5.38;;;2.17;;
67965;SDS011;54749;47.850;9.002;2024-03-23T22:14:35;4.32;;;1.13;;
67965;SDS011;54749;47.850;9.002;2024-03-23T22:17:02;3.80;;;1.00;;
67965;SDS011;54749;47.850;9.002;2024-03-23T22:19:28;9.97;;;3.07;;
67965;SDS011;54749;47.850;9.002;2024-03-23T22:21:55;12.90;;;6.22;;
67965;SDS011;54749;47.850;9.002;2024-03-23T22:24:21;33.08;;;15.75;;
67965;SDS011;54749;47.850;9.002;2024-03-23T22:26:48;13.65;;;5.32;;
67965;SDS011;54749;47.850;9.002;2024-03-23T22:29:14;30.43;;;12.07;;
67965;SDS011;54749;47.850;9.002;2024-03-23T22:31:41;39.95;;;18.63;;
67965;SDS011;54749;47.850;9.002;2024-03-23T22:34:06;25.95;;;12.57;;
67965;SDS011;54749;47.850;9.002;2024-03-23T22:36:33;19.20;;;8.48;;
67965;SDS011;54749;47.850;9.002;2024-03-23T22:38:59;7.60;;;3.13;;
67965;SDS011;54749;47.850;9.002;2024-03-23T22:41:25;13.40;;;5.77;;
67965;SDS011;54749;47.850;9.002;2024-03-23T22:43:51;25.85;;;13.18;;
67965;SDS011;54749;47.850;9.002;2024-03-23T22:46:18;21.60;;;8.70;;
67965;SDS011;54749;47.850;9.002;2024-03-23T22:48:44;11.73;;;3.17;;
67965;SDS011;54749;47.850;9.002;2024-03-23T22:51:14;9.70;;;3.63;;
67965;SDS011;54749;47.850;9.002;2024-03-23T22:53:43;12.90;;;6.63;;
67965;SDS011;54749;47.850;9.002;2024-03-23T22:56:10;31.42;;;15.13;;
67965;SDS011;54749;47.850;9.002;2024-03-23T22:58:36;15.55;;;7.72;;
67965;SDS011;54749;47.850;9.002;2024-03-23T23:01:05;18.77;;;8.20;;
67965;SDS011;54749;47.850;9.002;2024-03-23T23:03:33;12.65;;;4.68;;
67965;SDS011;54749;47.850;9.002;2024-03-23T23:06:03;17.00;;;7.70;;
67965;SDS011;54749;47.850;9.002;2024-03-23T23:08:31;15.55;;;7.20;;
67965;SDS011;54749;47.850;9.002;2024-03-23T23:10:58;6.38;;;2.80;;
67965;SDS011;54749;47.850;9.002;2024-03-23T23:13:24;7.93;;;3.83;;
67965;SDS011;54749;47.850;9.002;2024-03-23T23:15:52;31.05;;;15.80;;
67965;SDS011;54749;47.850;9.002;2024-03-23T23:18:22;24.47;;;7.30;;